Time;durP1;ratioP1;P1;durP2;ratioP2;P2;SDS_P1;SDS_P2;PMS_P1;PMS_P2;Temp;Humidity;BMP_temperature;BMP_pressure;BME280_temperature;BME280_humidity;BME280_pressure;Samples;Min_cycle;Max_cycle;Signal;HPM_P1;HPM_P2
2022/12/15 00:39:28;;;;;;;5.07;2.33;;;;;;;;;;5051165;28;20045;-84
2022/12/15 00:41:57;;;;;;;3.60;1.53;;;-3.10;99.90;;;;;;5018944;28;20044;-84
2022/12/15 00:44:23;;;;;;;4.83;2.77;;;;;;;;;;5016891;28;20535;-83
2022/12/15 00:46:54;;;;;;;5.90;2.70;;;-3.20;99.90;;;;;;5034378;28;20044;-83
2022/12/15 01:20:19;;;;;;;5.50;2.43;;;-0.80;99.90;;;;;;5056811;28;20456;-86
2022/12/15 01:22:49;;;;;;;3.80;1.93;;;-2.10;99.90;;;;;;5022729;28;20486;-86
2022/12/15 01:25:16;;;;;;;4.40;1.70;;;-3.00;99.90;;;;;;5039042;28;20177;-86
2022/12/15 01:27:43;;;;;;;4.83;1.63;;;-3.00;99.90;;;;;;5059017;28;20028;-86
2022/12/15 01:30:11;;;;;;;3.33;1.67;;;-0.40;99.90;;;;;;5052837;28;20489;-86
2022/12/15 01:32:37;;;;;;;4.50;1.90;;;-2.80;99.90;;;;;;5040267;28;20135;-86
2022/12/15 01:35:05;;;;;;;3.60;2.00;;;-3.10;99.90;;;;;;5053111;28;20131;-86
2022/12/15 01:37:33;;;;;;;2.50;1.50;;;-2.00;99.90;;;;;;5051003;28;20040;-86
2022/12/15 01:42:44;;;;;;;4.70;1.93;;;-1.90;99.90;;;;;;5073150;28;20040;-86
2022/12/15 01:45:31;;;;;;;2.80;1.40;;;-2.80;99.90;;;;;;5040284;28;20428;-86
2022/12/15 01:48:11;;;;;;;1.80;1.17;;;-3.10;99.90;;;;;;5052984;28;20041;-84
2022/12/15 01:51:01;;;;;;;1.10;0.80;;;-3.00;99.90;;;;;;5057804;28;20042;-84
2022/12/15 01:53:29;;;;;;;1.83;1.10;;;-3.10;99.90;;;;;;5069911;28;20055;-84
2022/12/15 01:55:55;;;;;;;0.90;0.63;;;-1.30;99.90;;;;;;5070721;28;20053;-84
2022/12/15 01:58:22;;;;;;;3.10;1.23;;;-1.30;99.90;;;;;;5053977;28;20090;-84
2022/12/15 02:00:48;;;;;;;2.40;1.27;;;-1.40;99.90;;;;;;5054832;28;20595;-84
2022/12/15 02:03:14;;;;;;;3.23;1.13;;;;;;;;;;5038590;28;20090;-85
2022/12/15 02:05:41;;;;;;;2.33;0.90;;;;;;;;;;5044152;28;20032;-86
2022/12/15 02:08:08;;;;;;;2.60;1.20;;;-3.10;99.90;;;;;;5057588;28;20032;-86
2022/12/15 02:11:03;;;;;;;3.43;1.20;;;-2.70;99.90;;;;;;5039728;28;20123;-85
2022/12/15 02:13:56;;;;;;;2.63;1.07;;;-3.10;99.90;;;;;;5072564;28;20125;-85
2022/12/15 02:16:55;;;;;;;1.87;0.60;;;-3.00;99.90;;;;;;5039648;28;20041;-85
2022/12/15 02:19:24;;;;;;;2.60;0.90;;;-3.10;99.90;;;;;;5047536;28;20502;-84
2022/12/15 02:22:15;;;;;;;4.97;1.23;;;-3.10;99.90;;;;;;5066664;28;20040;-84
2022/12/15 02:24:43;;;;;;;2.47;0.70;;;-3.00;99.90;;;;;;5036555;28;20036;-84
2022/12/15 02:27:41;;;;;;;2.30;0.70;;;-3.00;99.90;;;;;;5052843;28;20045;-84
2022/12/15 02:30:16;;;;;;;0.50;0.47;;;-2.70;99.90;;;;;;5045110;28;20537;-84
2022/12/15 02:33:19;;;;;;;3.50;1.00;;;-2.80;99.90;;;;;;5046804;28;20041;-84
2022/12/15 02:36:02;;;;;;;0.73;0.40;;;-2.90;99.90;;;;;;5057552;28;20068;-85
2022/12/15 02:38:34;;;;;;;1.20;0.70;;;-3.00;99.90;;;;;;5055505;28;20095;-86
2022/12/15 02:41:02;;;;;;;0.53;0.37;;;-3.00;99.90;;;;;;5050550;28;20371;-85
2022/12/15 02:43:32;;;;;;;1.27;0.50;;;-3.10;99.90;;;;;;5074231;28;20562;-86
2022/12/15 02:46:12;;;;;;;3.30;0.83;;;-3.10;99.90;;;;;;5043804;28;20450;-86
2022/12/15 02:48:54;;;;;;;1.23;0.73;;;-3.20;99.90;;;;;;5036326;28;20041;-86
2022/12/15 02:51:44;;;;;;;0.53;0.47;;;-4.00;99.90;;;;;;5056882;28;20048;-86
2022/12/15 02:54:45;;;;;;;1.17;0.47;;;-3.40;99.90;;;;;;5045500;28;20044;-86
2022/12/15 02:57:29;;;;;;;0.60;0.50;;;-3.40;99.90;;;;;;5085169;28;20142;-86
2022/12/15 03:00:05;;;;;;;0.83;0.50;;;-3.40;99.90;;;;;;5065986;28;20184;-86
2022/12/15 03:02:36;;;;;;;0.95;0.50;;;-3.40;99.90;;;;;;5042016;28;20399;-86
2022/12/15 03:05:03;;;;;;;2.53;0.70;;;-3.10;99.90;;;;;;5051396;28;20478;-86
2022/12/15 03:07:29;;;;;;;0.47;0.37;;;;;;;;;;5051443;28;20044;-86
2022/12/15 03:09:58;;;;;;;1.40;0.60;;;-3.40;99.90;;;;;;5042408;28;20497;-85
2022/12/15 03:12:24;;;;;;;2.37;0.63;;;-2.60;99.90;;;;;;5041812;28;20036;-85
2022/12/15 03:14:53;;;;;;;1.20;0.63;;;-1.00;99.90;;;;;;5034931;28;20071;-85
2022/12/15 03:17:18;;;;;;;0.90;0.60;;;-3.20;99.90;;;;;;5035899;28;20493;-85
2022/12/15 03:19:44;;;;;;;0.97;0.50;;;-1.00;99.90;;;;;;5047926;28;20493;-85
2022/12/15 03:22:10;;;;;;;2.60;0.53;;;-3.30;99.90;;;;;;5047295;28;20050;-85
2022/12/15 03:24:36;;;;;;;0.80;0.60;;;;;;;;;;5042899;28;20441;-85
2022/12/15 03:27:04;;;;;;;4.53;1.07;;;-3.00;99.90;;;;;;5042648;28;20042;-85
2022/12/15 03:29:29;;;;;;;1.57;0.57;;;-2.90;99.90;;;;;;5050889;28;20173;-85
2022/12/15 03:31:55;;;;;;;2.77;0.90;;;-1.40;99.90;;;;;;5045355;28;20061;-85
2022/12/15 03:34:21;;;;;;;1.30;0.80;;;-1.70;99.90;;;;;;5012598;28;20051;-85
2022/12/15 03:36:47;;;;;;;1.60;0.83;;;;;;;;;;5059059;28;20383;-85
2022/12/15 03:39:13;;;;;;;7.83;1.30;;;-2.60;99.90;;;;;;5040162;28;20347;-85
2022/12/15 03:41:40;;;;;;;2.07;1.20;;;-3.60;99.90;;;;;;5041206;28;20040;-84
2022/12/15 03:44:06;;;;;;;1.80;0.93;;;-2.20;99.90;;;;;;5023806;28;20174;-85
2022/12/15 03:46:32;;;;;;;4.40;1.37;;;;;;;;;;5050235;28;20055;-84
2022/12/15 03:48:58;;;;;;;3.10;1.27;;;;;;;;;;5040769;28;20089;-84
2022/12/15 03:51:24;;;;;;;3.57;1.40;;;-2.10;99.90;;;;;;5039254;28;20399;-84
2022/12/15 03:53:50;;;;;;;5.40;1.23;;;;;;;;;;5061723;28;20032;-84
2022/12/15 03:56:17;;;;;;;3.10;1.70;;;-2.20;99.90;;;;;;5054569;28;20047;-84
2022/12/15 03:58:43;;;;;;;2.27;1.37;;;-1.80;99.90;;;;;;5059266;28;20052;-84
2022/12/15 04:01:29;;;;;;;3.37;1.27;;;-0.30;99.90;;;;;;5046799;28;20055;-84
2022/12/15 04:03:55;;;;;;;2.17;1.33;;;;;;;;;;5059287;28;20031;-85
2022/12/15 04:06:21;;;;;;;4.87;1.50;;;-2.20;99.90;;;;;;5039222;28;20046;-85
2022/12/15 04:08:48;;;;;;;3.63;1.57;;;;;;;;;;5019640;28;20040;-85
2022/12/15 04:11:13;;;;;;;5.50;1.53;;;-2.20;99.90;;;;;;5061234;28;20056;-85
2022/12/15 04:13:39;;;;;;;3.70;1.67;;;-1.60;99.90;;;;;;5009736;28;20119;-85
2022/12/15 04:16:05;;;;;;;3.97;1.50;;;-4.20;99.90;;;;;;5038480;28;20044;-85
2022/12/15 04:18:31;;;;;;;2.00;1.07;;;-2.20;99.90;;;;;;5049900;28;20398;-84
2022/12/15 04:20:57;;;;;;;6.17;1.60;;;-0.70;99.90;;;;;;5055452;28;20048;-84
2022/12/15 04:23:23;;;;;;;3.47;1.10;;;-2.20;99.90;;;;;;5038975;28;20104;-84
2022/12/15 05:32:13;;;;;;;3.87;2.07;;;-0.60;99.90;;;;;;5051153;28;20051;-85
2022/12/15 05:34:38;;;;;;;5.00;2.20;;;-2.20;99.90;;;;;;5042419;28;20390;-85
2022/12/15 05:37:07;;;;;;;5.33;1.93;;;0.00;99.90;;;;;;5060925;28;20468;-85
2022/12/15 05:39:33;;;;;;;3.10;1.73;;;-1.20;99.90;;;;;;5034182;28;20036;-86
2022/12/15 05:41:59;;;;;;;9.27;2.27;;;-1.70;99.90;;;;;;5050247;28;20128;-86
2022/12/15 05:44:24;;;;;;;5.43;2.13;;;-1.90;99.90;;;;;;5047648;28;20479;-86
2022/12/15 05:46:50;;;;;;;5.87;2.37;;;-2.00;99.90;;;;;;5040973;28;20032;-86
2022/12/15 05:49:17;;;;;;;5.23;2.40;;;-1.90;99.90;;;;;;5069618;28;20044;-86
2022/12/15 05:51:44;;;;;;;6.07;2.27;;;-1.90;99.90;;;;;;5037358;28;20395;-86
2022/12/15 05:54:14;;;;;;;5.17;1.63;;;-1.70;99.90;;;;;;5054485;28;20486;-86
2022/12/15 05:56:43;;;;;;;3.17;2.03;;;-1.00;99.90;;;;;;5041116;28;20053;-85
2022/12/15 05:59:08;;;;;;;4.20;1.87;;;-1.70;99.90;;;;;;5063174;28;20516;-84
2022/12/15 06:01:35;;;;;;;4.10;1.73;;;-1.70;99.90;;;;;;5041503;28;20048;-84
2022/12/15 06:04:01;;;;;;;2.50;1.30;;;-0.90;99.90;;;;;;5037050;28;20055;-84
2022/12/15 06:06:27;;;;;;;4.00;1.90;;;-1.60;99.90;;;;;;5056353;28;20036;-84
2022/12/15 06:08:56;;;;;;;4.97;2.70;;;-0.50;99.90;;;;;;5085744;28;20501;-84
2022/12/15 06:11:22;;;;;;;5.10;1.80;;;0.40;99.90;;;;;;5021291;28;20093;-85
2022/12/15 06:13:55;;;;;;;3.37;1.50;;;0.10;99.90;;;;;;5045457;28;20502;-86
2022/12/15 06:16:23;;;;;;;3.13;1.37;;;0.10;99.90;;;;;;5029158;28;20972;-86
2022/12/15 06:19:00;;;;;;;4.03;1.90;;;-0.20;99.90;;;;;;5047702;28;20040;-86
2022/12/15 06:21:28;;;;;;;3.87;1.30;;;-1.80;99.90;;;;;;5055967;28;20097;-86
2022/12/15 06:23:57;;;;;;;5.20;2.30;;;-1.70;99.90;;;;;;5065987;28;20390;-86
2022/12/15 06:26:24;;;;;;;6.27;2.00;;;-1.80;99.90;;;;;;5040182;28;20068;-86
2022/12/15 06:28:50;;;;;;;5.70;1.67;;;-0.30;99.90;;;;;;5066917;28;20482;-86
2022/12/15 06:31:21;;;;;;;6.03;1.80;;;-0.40;99.90;;;;;;5051423;28;20055;-86
2022/12/15 06:33:51;;;;;;;5.07;2.23;;;-1.20;99.90;;;;;;5059158;28;20055;-86
2022/12/15 06:36:17;;;;;;;3.60;2.07;;;-1.70;99.90;;;;;;5070609;28;20037;-86
2022/12/15 06:38:43;;;;;;;6.83;3.00;;;-1.70;99.90;;;;;;5024764;28;20040;-86
2022/12/15 06:41:11;;;;;;;6.63;3.03;;;-1.70;99.90;;;;;;5066155;28;20040;-86
2022/12/15 06:43:37;;;;;;;5.43;2.90;;;-1.70;99.90;;;;;;5044124;28;20075;-86
2022/12/15 06:46:03;;;;;;;5.83;2.87;;;-3.70;99.90;;;;;;5043170;28;20504;-85
2022/12/15 06:48:29;;;;;;;6.10;3.00;;;-1.60;99.90;;;;;;5027970;28;20028;-84
2022/12/15 06:51:00;;;;;;;7.10;3.67;;;-2.70;99.90;;;;;;5052850;28;20037;-84
2022/12/15 06:53:26;;;;;;;6.67;2.87;;;-1.60;99.90;;;;;;5068951;28;20052;-84
2022/12/15 06:55:52;;;;;;;8.10;3.20;;;0.90;99.90;;;;;;5030696;28;20102;-84
2022/12/15 06:58:18;;;;;;;4.77;2.80;;;0.50;99.90;;;;;;5057921;28;20485;-85
2022/12/15 07:00:45;;;;;;;5.60;3.53;;;0.60;99.90;;;;;;5036051;28;20470;-84
2022/12/15 07:03:18;;;;;;;7.93;3.60;;;-1.10;99.90;;;;;;5063010;28;20087;-85
2022/12/15 07:05:59;;;;;;;8.33;3.47;;;-1.50;99.90;;;;;;5031582;28;20037;-86
2022/12/15 07:08:25;;;;;;;5.60;3.23;;;-1.40;99.90;;;;;;5060271;28;20040;-86
2022/12/15 07:10:51;;;;;;;7.97;3.27;;;-1.50;99.90;;;;;;5051881;28;20044;-85
2022/12/15 07:13:17;;;;;;;6.50;3.33;;;-1.50;99.90;;;;;;5056989;28;20037;-85
2022/12/15 07:15:43;;;;;;;7.70;3.30;;;-1.50;99.90;;;;;;5024439;28;20051;-86
2022/12/15 07:18:11;;;;;;;5.47;2.90;;;-1.50;99.90;;;;;;5057522;28;20044;-85
2022/12/15 07:20:37;;;;;;;12.47;4.10;;;-1.40;99.90;;;;;;5050548;28;20032;-84
2022/12/15 07:23:06;;;;;;;5.70;3.13;;;;;;;;;;5051011;28;20039;-84
2022/12/15 07:25:34;;;;;;;8.07;3.10;;;-1.00;99.90;;;;;;5070987;28;20040;-83
2022/12/15 07:28:00;;;;;;;8.17;3.20;;;-0.10;99.90;;;;;;5072587;28;20436;-84
2022/12/15 07:30:26;;;;;;;8.13;3.13;;;-1.30;99.90;;;;;;5061435;28;20123;-84
2022/12/15 07:32:52;;;;;;;5.83;2.70;;;-1.30;99.90;;;;;;5059640;28;20393;-84
2022/12/15 07:35:18;;;;;;;8.53;3.13;;;-1.10;99.90;;;;;;5076545;28;20044;-84
2022/12/15 07:37:44;;;;;;;4.77;2.50;;;-1.00;99.90;;;;;;5066452;28;20079;-84
2022/12/15 07:40:10;;;;;;;9.60;3.47;;;2.00;99.90;;;;;;5040618;28;20032;-84
2022/12/15 07:42:36;;;;;;;6.93;3.37;;;-0.90;99.90;;;;;;5053826;28;20041;-84
2022/12/15 07:45:04;;;;;;;5.70;2.70;;;-1.10;99.90;;;;;;5076214;28;20415;-84
2022/12/15 07:47:30;;;;;;;3.10;1.90;;;-1.00;99.90;;;;;;5055689;28;20546;-84
2022/12/15 07:49:55;;;;;;;9.03;3.37;;;-1.00;99.90;;;;;;5055351;28;20058;-84
2022/12/15 07:52:22;;;;;;;7.07;2.80;;;-0.60;99.90;;;;;;5064213;28;20127;-84
2022/12/15 07:54:48;;;;;;;4.23;2.47;;;-0.10;99.90;;;;;;5059736;28;20047;-84
2022/12/15 07:57:15;;;;;;;7.30;2.33;;;;;;;;;;5059357;28;20214;-84
2022/12/15 07:59:41;;;;;;;6.57;2.50;;;-0.90;99.90;;;;;;5025620;28;20052;-84
2022/12/15 08:02:12;;;;;;;5.33;2.77;;;-0.80;99.90;;;;;;5024788;28;20040;-84
2022/12/15 08:04:39;;;;;;;7.43;3.70;;;-0.80;99.90;;;;;;5039833;28;20466;-84
2022/12/15 08:07:05;;;;;;;8.77;2.87;;;-0.80;99.90;;;;;;5056051;28;20037;-84
2022/12/15 08:09:31;;;;;;;7.10;3.70;;;-1.20;99.90;;;;;;5022336;28;20048;-85
2022/12/15 08:11:57;;;;;;;6.57;3.43;;;-0.60;99.90;;;;;;5039362;28;20495;-85
2022/12/15 08:14:23;;;;;;;6.97;3.70;;;-0.50;99.90;;;;;;5055804;28;20109;-85
2022/12/15 08:16:49;;;;;;;10.67;4.00;;;-0.40;99.90;;;;;;5042113;28;20040;-85
2022/12/15 08:19:16;;;;;;;8.30;4.10;;;-0.20;99.90;;;;;;5066509;28;20127;-85
2022/12/15 08:21:44;;;;;;;5.87;3.57;;;0.00;99.90;;;;;;5037006;28;20037;-85
2022/12/15 08:24:10;;;;;;;6.40;3.70;;;0.30;99.90;;;;;;5035965;28;20039;-85
2022/12/15 08:26:37;;;;;;;4.40;2.93;;;0.40;99.90;;;;;;5035713;28;20041;-84
2022/12/15 08:29:04;;;;;;;6.70;3.63;;;0.50;99.90;;;;;;5040009;28;20542;-84
2022/12/15 08:31:32;;;;;;;4.93;3.30;;;1.70;99.90;;;;;;5054916;28;20079;-84
2022/12/15 08:34:02;;;;;;;10.10;3.73;;;0.50;99.90;;;;;;5055765;28;20074;-84
2022/12/15 08:36:28;;;;;;;9.93;4.10;;;0.40;99.90;;;;;;5072026;28;20055;-84
2022/12/15 08:38:58;;;;;;;11.33;3.73;;;0.40;99.90;;;;;;5072076;28;20044;-83
2022/12/15 08:41:29;;;;;;;8.23;3.83;;;0.50;99.90;;;;;;5043367;28;20041;-83
2022/12/15 08:43:57;;;;;;;5.87;2.80;;;2.20;99.90;;;;;;5071803;28;20043;-88
2022/12/15 08:46:32;;;;;;;8.57;3.50;;;0.70;99.90;;;;;;5037936;28;20410;-88
2022/12/15 08:48:58;;;;;;;8.17;3.27;;;0.90;99.90;;;;;;5038656;28;20041;-88
2022/12/15 08:51:27;;;;;;;7.93;3.23;;;2.80;99.90;;;;;;5015881;28;20301;-89
2022/12/15 08:53:54;;;;;;;5.40;3.00;;;2.60;99.90;;;;;;5019315;28;20045;-89
2022/12/15 08:56:22;;;;;;;5.10;3.30;;;3.50;99.90;;;;;;5018804;28;20061;-86
2022/12/15 08:58:49;;;;;;;8.83;3.40;;;2.50;99.90;;;;;;5035429;28;20072;-84
2022/12/15 09:01:17;;;;;;;10.83;3.23;;;2.00;99.90;;;;;;5039058;28;20123;-84
2022/12/15 09:03:43;;;;;;;7.00;2.90;;;1.90;99.90;;;;;;5055283;28;20123;-84
2022/12/15 09:06:18;;;;;;;6.77;2.63;;;1.70;99.90;;;;;;5038106;28;20127;-83
2022/12/15 09:08:43;;;;;;;5.07;2.80;;;1.50;99.90;;;;;;5055131;28;20044;-83
2022/12/15 09:11:09;;;;;;;5.33;3.00;;;1.40;99.90;;;;;;5054514;28;20410;-83
2022/12/15 09:13:35;;;;;;;7.57;2.70;;;1.30;99.90;;;;;;5070813;28;20246;-83
2022/12/15 09:16:04;;;;;;;7.97;3.30;;;1.20;99.90;;;;;;5054736;28;20047;-82
2022/12/15 09:18:30;;;;;;;7.43;3.27;;;1.20;99.90;;;;;;5055114;28;20158;-82
2022/12/15 09:21:02;;;;;;;5.67;2.80;;;1.90;99.90;;;;;;5071014;28;20043;-82
2022/12/15 09:23:28;;;;;;;7.17;3.17;;;1.30;99.90;;;;;;5055019;28;20044;-82
2022/12/15 09:26:01;;;;;;;5.47;2.70;;;3.50;99.90;;;;;;5054535;28;20075;-82
2022/12/15 09:28:28;;;;;;;5.38;2.53;;;2.30;99.90;;;;;;5054589;28;20043;-82
2022/12/15 09:31:00;;;;;;;8.50;3.30;;;4.20;99.90;;;;;;5033760;28;20052;-82
2022/12/15 09:33:26;;;;;;;9.25;2.80;;;3.20;99.90;;;;;;5054682;28;20045;-83
2022/12/15 09:35:51;;;;;;;7.95;3.10;;;3.40;99.90;;;;;;5037788;28;20736;-83
2022/12/15 09:38:17;;;;;;;5.13;2.85;;;3.50;99.90;;;;;;5038108;28;20036;-83
2022/12/15 09:40:43;;;;;;;6.00;3.15;;;5.20;99.90;;;;;;5017708;28;20471;-83
2022/12/15 09:43:14;;;;;;;6.40;3.00;;;3.90;99.90;;;;;;5021104;28;20050;-84
2022/12/15 09:45:44;;;;;;;5.80;3.13;;;5.20;99.90;;;;;;5037698;28;20039;-84
2022/12/15 09:48:18;;;;;;;5.28;3.17;;;4.30;99.90;;;;;;5054300;28;20076;-84
2022/12/15 09:50:49;;;;;;;6.93;2.80;;;5.30;99.90;;;;;;5053839;28;20398;-83
2022/12/15 09:53:17;;;;;;;6.22;3.88;;;6.10;99.90;;;;;;5029877;28;20098;-84
2022/12/15 09:55:46;;;;;;;7.45;2.67;;;5.80;99.90;;;;;;5026217;28;20119;-84
2022/12/15 09:58:35;;;;;;;6.32;3.13;;;5.30;99.90;;;;;;5075453;28;20087;-84
2022/12/15 10:01:16;;;;;;;7.53;3.55;;;5.10;99.90;;;;;;5059060;28;20048;-89
2022/12/15 10:04:10;;;;;;;9.40;3.92;;;5.90;99.90;;;;;;5041592;28;20041;-88
2022/12/15 10:06:44;;;;;;;6.78;2.97;;;4.80;99.90;;;;;;5041875;28;20048;-84
2022/12/15 10:09:20;;;;;;;7.78;3.17;;;5.40;99.90;;;;;;5038008;28;20105;-84
2022/12/15 10:12:02;;;;;;;6.53;2.80;;;6.10;99.90;;;;;;5039668;28;20053;-84
2022/12/15 10:14:30;;;;;;;6.28;2.80;;;5.50;99.90;;;;;;5032888;28;20390;-85
2022/12/15 10:17:26;;;;;;;5.72;2.80;;;5.60;99.90;;;;;;5072723;28;20044;-85
2022/12/15 10:20:14;;;;;;;9.82;3.15;;;5.90;99.90;;;;;;5032281;28;20075;-85
2022/12/15 10:22:40;;;;;;;10.02;2.95;;;6.00;99.90;;;;;;5038419;28;20128;-86
2022/12/15 10:25:16;;;;;;;7.07;3.08;;;5.90;99.90;;;;;;5022985;28;20119;-86
2022/12/15 10:28:20;;;;;;;6.18;2.70;;;6.10;99.90;;;;;;5056266;28;20094;-87
2022/12/15 10:30:49;;;;;;;9.70;3.00;;;5.10;99.90;;;;;;5054697;28;20082;-86
2022/12/15 10:33:15;;;;;;;8.07;3.03;;;5.10;99.90;;;;;;5055549;28;20041;-86
2022/12/15 10:35:42;;;;;;;6.45;2.70;;;5.50;99.90;;;;;;5056318;28;20517;-85
2022/12/15 10:38:40;;;;;;;7.00;2.95;;;6.40;99.90;;;;;;5055269;28;20040;-86
2022/12/15 10:41:12;;;;;;;7.88;3.20;;;5.60;99.90;;;;;;5040251;28;20048;-83
2022/12/15 10:43:43;;;;;;;4.60;2.75;;;7.00;99.90;;;;;;5053337;28;20060;-83
2022/12/15 10:46:20;;;;;;;3.35;2.10;;;6.90;99.90;;;;;;5057043;28;20036;-83
2022/12/15 10:48:47;;;;;;;7.20;2.90;;;5.30;99.90;;;;;;5062798;28;20083;-83
2022/12/15 10:51:15;;;;;;;8.55;2.60;;;5.20;99.90;;;;;;5056055;28;20450;-83
2022/12/15 10:53:51;;;;;;;8.88;3.70;;;5.10;99.90;;;;;;5056844;28;20036;-83
2022/12/15 10:56:56;;;;;;;8.55;3.60;;;5.60;99.90;;;;;;5071370;28;20035;-83
2022/12/15 10:59:30;;;;;;;5.05;2.47;;;5.60;99.90;;;;;;5071804;28;20490;-83
2022/12/15 11:02:20;;;;;;;5.72;3.58;;;6.00;99.90;;;;;;5055552;28;20044;-84
2022/12/15 11:05:02;;;;;;;6.75;2.90;;;6.00;99.90;;;;;;5068912;28;20086;-84
2022/12/15 11:07:33;;;;;;;4.93;2.40;;;6.70;99.90;;;;;;5057254;28;20125;-83
2022/12/15 11:10:01;;;;;;;8.07;2.78;;;7.30;99.90;;;;;;5041242;28;20090;-84
2022/12/15 11:15:23;;;;;;;6.28;2.97;;;8.20;99.90;;;;;;5040923;28;20438;-87
2022/12/15 11:18:15;;;;;;;6.25;2.70;;;9.70;99.90;;;;;;5052535;28;20041;-87
2022/12/15 11:21:04;;;;;;;3.85;2.22;;;8.30;99.90;;;;;;5056470;28;20375;-87
2022/12/15 11:23:47;;;;;;;6.57;3.60;;;8.30;99.90;;;;;;5036186;28;20036;-87
2022/12/15 11:26:33;;;;;;;5.22;2.78;;;8.20;99.90;;;;;;5040774;28;20033;-87
2022/12/15 11:29:22;;;;;;;5.70;2.65;;;7.90;99.90;;;;;;5057907;28;20379;-83
2022/12/15 11:31:50;;;;;;;5.38;2.22;;;7.60;99.90;;;;;;5033462;28;20053;-83
2022/12/15 11:34:22;;;;;;;5.30;2.22;;;7.90;99.90;;;;;;5037454;28;20037;-83
2022/12/15 11:37:14;;;;;;;6.70;2.45;;;7.60;99.90;;;;;;5020777;28;20495;-83
2022/12/15 11:40:17;;;;;;;5.57;2.38;;;6.90;99.90;;;;;;5029977;28;20048;-83
2022/12/15 11:42:46;;;;;;;4.68;2.70;;;6.50;99.90;;;;;;5054000;28;20791;-84
2022/12/15 11:45:32;;;;;;;7.00;2.42;;;6.30;99.90;;;;;;5057987;28;20110;-83
2022/12/15 11:48:36;;;;;;;8.10;2.72;;;5.90;99.90;;;;;;5037415;28;20080;-83
2022/12/15 11:51:10;;;;;;;6.28;2.70;;;5.90;99.90;;;;;;5002531;28;20044;-83
2022/12/15 11:53:58;;;;;;;11.40;3.00;;;6.10;99.90;;;;;;5057336;28;20055;-83
2022/12/15 11:56:28;;;;;;;5.30;3.20;;;6.20;99.90;;;;;;5040406;28;20063;-83
2022/12/15 11:59:24;;;;;;;8.93;2.95;;;7.10;99.90;;;;;;5057486;28;20110;-83
2022/12/15 12:02:02;;;;;;;5.95;3.17;;;6.20;99.90;;;;;;5057166;28;20087;-83
2022/12/15 12:04:30;;;;;;;10.55;3.53;;;6.20;99.90;;;;;;5057324;28;20059;-83
2022/12/15 12:07:17;;;;;;;8.85;3.38;;;6.60;99.90;;;;;;5057209;28;20395;-84
2022/12/15 12:10:09;;;;;;;6.68;3.03;;;5.90;99.90;;;;;;5040389;28;20043;-84
2022/12/15 12:12:44;;;;;;;5.60;2.75;;;5.80;99.90;;;;;;5056993;28;20044;-84
2022/12/15 12:15:13;;;;;;;6.85;3.03;;;5.60;99.90;;;;;;5056143;28;20182;-84
2022/12/15 12:18:04;;;;;;;7.18;2.85;;;6.30;99.90;;;;;;5056494;28;20079;-83
2022/12/15 12:20:48;;;;;;;5.90;2.90;;;5.40;99.90;;;;;;5040084;28;20077;-87
2022/12/15 12:23:29;;;;;;;5.10;2.42;;;5.20;99.90;;;;;;5056777;28;20085;-87
2022/12/15 12:26:01;;;;;;;8.93;3.35;;;5.00;99.90;;;;;;5039942;28;20123;-87
2022/12/15 12:28:39;;;;;;;8.32;3.00;;;5.00;99.90;;;;;;5056488;28;20507;-87
2022/12/15 12:31:16;;;;;;;8.23;2.63;;;6.50;99.90;;;;;;5053504;28;20388;-87
2022/12/15 12:33:48;;;;;;;5.45;2.85;;;5.50;99.90;;;;;;5053234;28;20045;-87
2022/12/15 12:36:15;;;;;;;4.72;2.40;;;5.90;99.90;;;;;;5036891;28;20045;-83
2022/12/15 12:38:54;;;;;;;6.97;2.40;;;6.30;99.90;;;;;;5067299;28;20044;-83
2022/12/15 12:41:34;;;;;;;;;;;5.90;99.90;;;;;;5036491;28;20041;-83
2022/12/15 12:44:14;;;;;;;5.20;2.80;;;6.10;99.90;;;;;;5055396;28;20282;-83
2022/12/15 12:46:46;;;;;;;6.18;2.70;;;6.30;99.90;;;;;;5055205;28;20029;-83
2022/12/15 12:49:25;;;;;;;5.75;2.88;;;6.80;99.90;;;;;;5056076;28;20043;-87
2022/12/15 12:51:57;;;;;;;5.75;2.83;;;6.90;99.90;;;;;;5029796;28;20047;-87
2022/12/15 12:54:35;;;;;;;11.43;2.72;;;7.60;99.90;;;;;;5053247;28;20044;-83
2022/12/15 12:57:10;;;;;;;7.28;2.90;;;6.30;99.90;;;;;;5055285;28;20607;-83
2022/12/15 12:59:40;;;;;;;6.93;2.67;;;6.70;99.90;;;;;;5055838;28;20044;-83
2022/12/15 13:02:24;;;;;;;6.90;2.97;;;6.20;99.90;;;;;;5072666;28;20039;-84
2022/12/15 13:05:03;;;;;;;7.28;3.13;;;5.60;99.90;;;;;;5039815;28;20048;-84
2022/12/15 13:07:35;;;;;;;8.02;3.40;;;6.30;99.90;;;;;;5055604;28;20478;-84
2022/12/15 13:10:06;;;;;;;7.20;2.83;;;5.10;99.90;;;;;;5039170;28;20105;-83
2022/12/15 13:12:47;;;;;;;6.53;3.15;;;6.60;99.90;;;;;;5090107;22;20047;-87
2022/12/15 13:15:23;;;;;;;9.02;3.20;;;4.70;99.90;;;;;;5076019;28;20405;-87
2022/12/15 13:17:53;;;;;;;5.70;3.05;;;4.50;99.90;;;;;;5075563;28;20074;-87
2022/12/15 13:20:28;;;;;;;8.50;2.72;;;4.40;99.90;;;;;;5075819;28;20474;-86
2022/12/15 13:23:15;;;;;;;6.80;2.80;;;4.30;99.90;;;;;;5092136;28;20074;-83
2022/12/15 13:25:43;;;;;;;5.15;2.65;;;4.20;99.90;;;;;;5075611;28;20290;-89
2022/12/15 13:28:26;;;;;;;8.00;2.72;;;4.40;99.90;;;;;;5092456;28;20482;-88
2022/12/15 13:31:18;;;;;;;8.15;2.53;;;3.90;99.90;;;;;;5092543;28;20680;-87
2022/12/15 13:33:49;;;;;;;5.57;2.50;;;4.00;99.90;;;;;;5075357;28;20065;-87
2022/12/15 13:36:40;;;;;;;6.53;2.47;;;4.50;99.90;;;;;;5075269;28;20044;-85
2022/12/15 13:39:15;;;;;;;9.27;2.50;;;4.30;99.90;;;;;;5092276;28;20040;-85
2022/12/15 13:41:47;;;;;;;8.13;2.47;;;4.30;99.90;;;;;;5075265;28;20040;-85
2022/12/15 13:44:33;;;;;;;4.88;2.60;;;4.40;99.90;;;;;;5092299;28;20105;-85
2022/12/15 13:47:11;;;;;;;7.93;2.95;;;4.50;99.90;;;;;;5087558;28;20505;-85
2022/12/15 13:49:47;;;;;;;8.77;2.75;;;4.80;99.90;;;;;;5075228;28;20036;-85
2022/12/15 13:52:27;;;;;;;8.25;2.83;;;4.50;99.90;;;;;;5075478;28;20507;-85
2022/12/15 13:55:02;;;;;;;8.63;3.08;;;4.40;99.90;;;;;;5089675;28;20048;-86
2022/12/15 13:57:33;;;;;;;6.18;2.80;;;5.50;99.90;;;;;;5071221;28;20048;-85
2022/12/15 14:00:06;;;;;;;6.22;3.05;;;5.30;99.90;;;;;;5071937;28;20109;-85
2022/12/15 14:02:34;;;;;;;5.82;2.78;;;3.90;99.90;;;;;;5056910;28;20037;-85
2022/12/15 14:05:17;;;;;;;7.32;3.10;;;5.00;99.90;;;;;;5063542;28;20044;-86
2022/12/15 14:07:52;;;;;;;13.75;3.50;;;3.70;99.90;;;;;;5075115;28;20100;-86
2022/12/15 14:10:38;;;;;;;8.70;4.00;;;3.60;99.90;;;;;;5075168;28;20072;-86
2022/12/15 14:13:23;;;;;;;8.57;3.60;;;3.50;99.90;;;;;;5075056;28;20062;-85
2022/12/15 14:15:58;;;;;;;9.32;2.85;;;3.50;99.90;;;;;;5089914;28;20055;-83
2022/12/15 14:18:30;;;;;;;8.40;3.50;;;3.50;99.90;;;;;;5098020;28;20048;-83
2022/12/15 14:20:58;;;;;;;8.93;3.28;;;4.60;99.90;;;;;;5091705;28;20101;-84
2022/12/15 14:23:37;;;;;;;9.73;3.30;;;4.70;99.90;;;;;;5091997;28;20078;-83
2022/12/15 14:26:07;;;;;;;6.40;2.95;;;4.70;99.90;;;;;;5075098;28;20044;-83
2022/12/15 14:28:35;;;;;;;14.73;3.05;;;3.30;99.90;;;;;;5072099;28;20072;-89
2022/12/15 14:31:09;;;;;;;8.75;3.15;;;3.30;99.90;;;;;;5055361;28;20063;-87
2022/12/15 14:33:38;;;;;;;6.93;2.70;;;3.30;99.90;;;;;;5072092;28;20037;-84
2022/12/15 14:36:08;;;;;;;5.63;2.55;;;4.40;99.90;;;;;;5058925;28;20062;-85
2022/12/15 14:38:45;;;;;;;5.50;2.72;;;3.30;99.90;;;;;;5092745;28;20072;-84
2022/12/15 14:41:21;;;;;;;6.28;2.45;;;3.20;99.90;;;;;;5095830;28;20465;-84
2022/12/15 14:43:48;;;;;;;5.53;2.40;;;3.20;99.90;;;;;;5078993;28;20123;-84
2022/12/15 14:46:21;;;;;;;9.50;3.17;;;3.20;99.90;;;;;;5095245;28;20086;-84
2022/12/15 14:48:59;;;;;;;5.25;2.72;;;3.10;99.90;;;;;;5069360;28;20072;-82
2022/12/15 14:51:27;;;;;;;8.13;2.80;;;3.10;99.90;;;;;;5066322;28;20040;-82
2022/12/15 14:53:53;;;;;;;9.23;3.17;;;4.20;99.90;;;;;;5086455;28;20435;-82
2022/12/15 14:56:19;;;;;;;7.20;2.50;;;3.00;99.90;;;;;;5083185;28;20036;-82
2022/12/15 14:59:02;;;;;;;4.95;2.55;;;4.60;99.90;;;;;;5095092;28;20134;-82
2022/12/15 15:01:35;;;;;;;7.57;2.38;;;2.80;99.90;;;;;;5074789;28;20047;-82
2022/12/15 15:04:04;;;;;;;5.72;2.60;;;2.80;99.90;;;;;;5111132;28;20121;-82
2022/12/15 15:06:38;;;;;;;9.15;2.65;;;2.70;99.90;;;;;;5110199;28;20040;-82
2022/12/15 15:09:20;;;;;;;5.82;2.47;;;2.60;99.90;;;;;;5078218;28;20047;-82
2022/12/15 15:11:49;;;;;;;12.33;4.27;;;3.70;99.90;;;;;;5063857;28;20032;-82
2022/12/15 15:14:23;;;;;;;14.17;4.87;;;2.40;99.90;;;;;;5089649;28;20052;-81
2022/12/15 15:17:27;;;;;;;34.42;10.75;;;2.30;99.90;;;;;;5087131;28;20045;-82
2022/12/15 15:19:59;;;;;;;23.53;7.50;;;0.50;99.90;;;;;;5076287;28;20528;-82
2022/12/15 15:22:31;;;;;;;13.77;5.47;;;3.30;99.90;;;;;;5072155;28;20067;-83
2022/12/15 15:24:57;;;;;;;4.90;2.70;;;2.10;99.90;;;;;;5121565;27;20036;-83
2022/12/15 15:27:26;;;;;;;4.27;2.67;;;3.00;99.90;;;;;;5073014;28;20532;-84
2022/12/15 15:30:05;;;;;;;5.38;2.40;;;1.90;99.90;;;;;;5077666;28;20413;-84
2022/12/15 15:32:30;;;;;;;8.17;2.83;;;2.00;99.90;;;;;;5077543;28;20209;-84
2022/12/15 15:34:56;;;;;;;6.97;3.00;;;2.40;99.90;;;;;;5070003;28;20036;-84
2022/12/15 15:37:23;;;;;;;7.40;2.67;;;2.40;99.90;;;;;;5070362;28;20051;-84
2022/12/15 15:39:51;;;;;;;7.43;2.63;;;2.00;99.90;;;;;;5065429;28;20502;-82
2022/12/15 15:42:17;;;;;;;5.63;3.03;;;2.00;99.90;;;;;;5074213;28;20123;-81
2022/12/15 15:44:43;;;;;;;7.17;2.93;;;1.90;99.90;;;;;;5057445;28;20516;-82
2022/12/15 15:47:23;;;;;;;5.27;2.50;;;3.40;99.90;;;;;;5065005;28;20036;-82